Time;durP1;ratioP1;P1;durP2;ratioP2;P2;SDS_P1;SDS_P2;PMS_P1;PMS_P2;Temp;Humidity;BMP_temperature;BMP_pressure;BME280_temperature;BME280_humidity;BME280_pressure;Samples;Min_cycle;Max_cycle;Signal;HPM_P1;HPM_P2
2020/12/23 00:00:14;;;;;;;2.25;1.20;;;;;;;14.75;87.60;101095.19;4972505;28;20046;-70
2020/12/23 00:02:42;;;;;;;2.58;0.95;;;;;;;14.74;87.95;101101.06;4984199;28;20059;-69
2020/12/23 00:05:11;;;;;;;2.65;1.08;;;;;;;14.54;88.56;101089.56;4970706;28;20059;-70
2020/12/23 00:07:38;;;;;;;2.47;1.00;;;;;;;14.64;88.67;101085.63;4955399;28;20058;-69
2020/12/23 00:10:05;;;;;;;3.63;1.00;;;;;;;14.64;88.70;101094.75;4971185;28;20058;-73
2020/12/23 00:12:33;;;;;;;4.15;1.02;;;;;;;14.81;88.11;101106.91;4967134;28;20075;-69
2020/12/23 00:15:00;;;;;;;3.33;1.02;;;;;;;14.72;88.08;101098.63;4976448;28;20062;-68
2020/12/23 00:17:27;;;;;;;3.00;0.93;;;;;;;14.55;89.24;101099.53;4986284;28;20043;-69
2020/12/23 00:19:54;;;;;;;2.45;0.98;;;;;;;14.59;89.17;101094.13;4964255;28;20051;-71
2020/12/23 00:22:21;;;;;;;2.58;0.85;;;;;;;14.56;89.41;101086.44;4945135;28;20073;-70
2020/12/23 00:24:48;;;;;;;2.40;0.82;;;;;;;14.60;89.16;101084.66;4991505;28;20053;-70
2020/12/23 00:27:15;;;;;;;1.90;1.00;;;;;;;14.63;89.10;101081.22;4994106;28;20058;-69
2020/12/23 00:29:42;;;;;;;3.25;1.10;;;;;;;14.50;89.40;101083.06;4985946;28;20054;-69
2020/12/23 00:32:09;;;;;;;3.25;1.00;;;;;;;14.53;89.22;101078.81;4975840;28;20402;-70
2020/12/23 00:34:36;;;;;;;4.05;0.80;;;;;;;14.54;89.41;101074.88;4987331;28;20079;-72
2020/12/23 00:37:03;;;;;;;3.03;0.93;;;;;;;14.53;89.02;101085.16;4992832;28;20046;-69
2020/12/23 00:39:29;;;;;;;2.40;1.00;;;;;;;14.49;89.46;101081.41;5011056;28;20042;-69
2020/12/23 00:41:56;;;;;;;2.20;0.90;;;;;;;14.65;88.62;101079.75;5005286;28;20066;-73
2020/12/23 00:44:24;;;;;;;2.00;0.95;;;;;;;14.56;89.02;101073.41;4981392;28;20608;-67
2020/12/23 00:46:51;;;;;;;3.88;1.33;;;;;;;14.52;89.59;101066.09;5006643;28;20051;-69
2020/12/23 00:49:18;;;;;;;2.67;0.90;;;;;;;14.40;90.50;101066.78;4994927;28;20051;-70
2020/12/23 00:51:45;;;;;;;4.70;1.30;;;;;;;14.39;90.66;101058.78;4980478;28;20062;-70
2020/12/23 00:54:12;;;;;;;2.10;1.05;;;;;;;14.47;90.58;101047.69;5012366;28;20050;-69
2020/12/23 00:56:41;;;;;;;3.28;1.38;;;;;;;14.41;90.74;101050.97;5011501;28;20398;-70
2020/12/23 00:59:08;;;;;;;3.13;1.27;;;;;;;14.55;90.71;101051.56;4988113;28;20417;-68
2020/12/23 01:01:36;;;;;;;4.32;1.23;;;;;;;14.50;90.54;101051.75;4982478;28;20051;-72
2020/12/23 01:04:03;;;;;;;5.00;1.52;;;;;;;14.35;91.11;101038.41;4981362;28;20054;-72
2020/12/23 01:06:30;;;;;;;2.80;1.40;;;;;;;14.33;91.26;101038.75;4993481;28;20058;-69
2020/12/23 01:08:57;;;;;;;6.45;1.52;;;;;;;14.41;91.20;101037.94;4990222;28;20046;-69
2020/12/23 01:11:23;;;;;;;5.25;2.03;;;;;;;14.47;90.56;101028.28;4958897;28;20054;-68
2020/12/23 01:13:50;;;;;;;3.92;1.63;;;;;;;14.27;91.56;101026.22;4978664;28;20508;-69
2020/12/23 01:16:22;;;;;;;2.70;1.27;;;;;;;14.39;91.02;101028.31;4995052;28;20520;-70
2020/12/23 01:18:49;;;;;;;4.35;1.65;;;;;;;14.41;91.14;101026.03;5007152;28;20062;-70
2020/12/23 01:21:16;;;;;;;3.88;1.50;;;;;;;14.30;91.09;101027.50;4994827;28;20054;-71
2020/12/23 01:23:44;;;;;;;3.95;2.05;;;;;;;14.19;91.69;101017.91;4997884;28;20063;-69
2020/12/23 01:26:11;;;;;;;4.22;1.70;;;;;;;14.33;91.41;101024.09;4973764;28;20061;-69
2020/12/23 01:28:38;;;;;;;3.10;1.70;;;;;;;14.42;91.11;101013.78;4981911;28;20050;-70
2020/12/23 01:31:05;;;;;;;3.60;1.80;;;;;;;14.59;90.19;101005.41;4993989;28;20050;-71
2020/12/23 01:33:33;;;;;;;6.15;2.20;;;;;;;14.44;89.84;101001.22;4978256;28;20422;-69
2020/12/23 01:36:00;;;;;;;3.97;2.33;;;;;;;14.47;90.60;100999.75;4984316;28;20050;-69
2020/12/23 01:38:27;;;;;;;4.68;2.50;;;;;;;14.59;90.02;100999.88;4994862;28;20367;-69
2020/12/23 01:40:58;;;;;;;6.97;2.75;;;;;;;14.61;89.60;100998.38;4984380;28;20050;-71
2020/12/23 01:43:25;;;;;;;5.45;2.80;;;;;;;14.43;90.15;100998.78;4976391;28;20059;-71
2020/12/23 01:45:52;;;;;;;4.38;2.97;;;;;;;14.38;90.91;100987.88;4991017;28;20055;-72
2020/12/23 01:48:30;;;;;;;5.13;3.30;;;;;;;14.40;90.31;100982.84;4975730;28;20058;-69
2020/12/23 01:51:01;;;;;;;5.28;3.00;;;;;;;14.50;90.83;100980.50;4975112;28;21036;-71
2020/12/23 01:53:28;;;;;;;6.88;4.13;;;;;;;14.68;89.10;100982.03;4958453;28;20055;-68
2020/12/23 01:55:56;;;;;;;7.43;3.83;;;;;;;14.53;90.08;100990.91;4984907;28;20066;-67
2020/12/23 01:58:23;;;;;;;6.53;3.80;;;;;;;14.45;90.57;100980.66;4988199;28;20046;-70
2020/12/23 02:00:50;;;;;;;7.57;4.10;;;;;;;14.47;90.68;100983.13;4974343;28;20406;-70
2020/12/23 02:03:20;;;;;;;6.47;4.05;;;;;;;14.41;91.36;100982.50;4982374;28;20058;-70
2020/12/23 02:05:47;;;;;;;7.25;4.10;;;;;;;14.42;91.57;100986.06;4974450;28;20054;-71
2020/12/23 02:08:14;;;;;;;6.22;4.30;;;;;;;14.51;91.10;100992.38;4963965;28;20046;-70
2020/12/23 02:10:41;;;;;;;7.55;4.65;;;;;;;14.53;91.11;100987.31;4992235;28;20073;-69
2020/12/23 02:13:09;;;;;;;7.65;4.22;;;;;;;14.46;91.28;100979.53;4992081;28;20058;-75
2020/12/23 02:15:36;;;;;;;7.97;4.70;;;;;;;14.51;91.27;100972.97;4958735;28;20059;-69
2020/12/23 02:18:03;;;;;;;6.38;4.38;;;;;;;14.68;91.03;100964.56;4981794;28;20057;-70
2020/12/23 02:20:30;;;;;;;7.00;4.50;;;;;;;14.82;89.22;100965.16;4974738;28;20058;-68
2020/12/23 02:22:57;;;;;;;7.05;4.70;;;;;;;14.73;90.08;100956.09;4979519;28;20054;-70
2020/12/23 02:25:24;;;;;;;8.35;4.63;;;;;;;14.65;90.45;100948.63;4999055;28;20494;-69
2020/12/23 02:27:51;;;;;;;7.35;4.85;;;;;;;14.68;90.34;100949.91;4979301;28;20061;-72
2020/12/23 02:30:22;;;;;;;9.55;4.97;;;;;;;14.65;90.25;100943.06;4975952;28;20047;-71
2020/12/23 02:32:49;;;;;;;7.40;4.60;;;;;;;14.71;90.04;100941.75;4988517;28;20073;-69
2020/12/23 02:35:16;;;;;;;7.88;5.28;;;;;;;15.00;88.82;100951.97;4988968;28;20046;-71
2020/12/23 02:37:42;;;;;;;7.72;4.45;;;;;;;14.79;88.69;100945.59;4996033;28;20059;-68
2020/12/23 02:40:09;;;;;;;9.25;4.53;;;;;;;14.91;88.89;100940.13;4980137;28;20121;-68
2020/12/23 02:42:37;;;;;;;7.97;4.90;;;;;;;14.82;89.22;100933.84;4993459;28;20053;-68
2020/12/23 02:45:04;;;;;;;8.18;4.50;;;;;;;14.84;89.00;100934.28;4973257;28;20063;-70
2020/12/23 02:47:30;;;;;;;7.72;4.30;;;;;;;14.69;89.03;100932.94;4969920;28;20046;-69
2020/12/23 02:49:57;;;;;;;7.80;4.38;;;;;;;14.78;89.07;100939.25;4978784;28;20399;-68
2020/12/23 02:52:24;;;;;;;7.90;4.18;;;;;;;14.94;88.15;100934.72;4991490;28;20050;-69
2020/12/23 02:54:51;;;;;;;9.57;4.32;;;;;;;14.95;87.66;100932.75;4975329;28;20054;-69
2020/12/23 02:57:17;;;;;;;7.10;4.25;;;;;;;14.90;87.88;100925.47;4991122;28;20055;-69
2020/12/23 02:59:45;;;;;;;7.53;4.13;;;;;;;14.93;88.04;100916.47;4984023;28;20050;-72
2020/12/23 03:02:11;;;;;;;5.88;4.00;;;;;;;14.88;87.68;100913.06;4963534;28;20046;-69
2020/12/23 03:04:57;;;;;;;6.25;4.10;;;;;;;14.83;88.24;100913.28;4999441;28;20502;-70
2020/12/23 03:07:24;;;;;;;6.40;4.03;;;;;;;14.84;88.06;100920.44;4992567;28;20050;-69
2020/12/23 03:09:51;;;;;;;6.07;4.18;;;;;;;14.90;87.38;100905.22;4985124;28;20103;-69
2020/12/23 03:12:18;;;;;;;6.63;4.28;;;;;;;14.81;88.05;100902.53;4975670;28;20494;-73
2020/12/23 03:14:51;;;;;;;6.35;4.10;;;;;;;14.84;87.46;100910.16;4987516;28;20070;-74
2020/12/23 03:17:17;;;;;;;6.10;4.10;;;;;;;14.93;86.66;100908.13;4990292;28;20042;-73
2020/12/23 03:19:44;;;;;;;9.90;4.53;;;;;;;14.90;86.48;100900.50;4985687;28;20054;-71
2020/12/23 03:22:11;;;;;;;6.75;3.85;;;;;;;14.82;87.47;100895.03;4991514;28;20047;-71
2020/12/23 03:24:38;;;;;;;10.93;4.32;;;;;;;14.94;86.83;100886.78;4973352;28;20504;-70
2020/12/23 03:27:05;;;;;;;10.27;4.20;;;;;;;14.93;86.89;100888.72;4971506;28;20057;-69
2020/12/23 03:29:32;;;;;;;6.55;4.05;;;;;;;14.82;87.19;100887.50;4966115;28;20051;-69
2020/12/23 03:31:59;;;;;;;6.32;4.30;;;;;;;14.95;86.88;100886.44;4961103;28;20055;-68
2020/12/23 03:34:26;;;;;;;7.15;3.90;;;;;;;14.95;86.09;100885.59;4979509;28;20054;-68
2020/12/23 03:36:53;;;;;;;5.75;3.88;;;;;;;14.82;86.12;100897.78;4990837;28;20054;-73
2020/12/23 03:39:20;;;;;;;6.63;3.88;;;;;;;14.74;86.65;100893.09;4987012;28;20058;-73
2020/12/23 03:41:46;;;;;;;6.18;4.30;;;;;;;14.65;87.29;100882.06;4985723;28;20057;-73
2020/12/23 03:44:14;;;;;;;8.10;4.10;;;;;;;14.69;87.44;100880.25;4988473;28;20050;-69
2020/12/23 03:46:41;;;;;;;6.18;3.40;;;;;;;14.62;87.59;100888.31;4992500;28;20051;-70
2020/12/23 03:49:08;;;;;;;10.35;3.40;;;;;;;14.75;87.04;100897.53;4989242;28;20049;-69
2020/12/23 03:51:35;;;;;;;7.03;3.22;;;;;;;15.15;84.96;100874.50;4983483;28;20058;-68
2020/12/23 03:54:02;;;;;;;6.60;3.38;;;;;;;14.96;85.82;100870.59;4977028;28;20058;-69
2020/12/23 03:56:28;;;;;;;5.55;3.63;;;;;;;14.89;85.69;100860.03;4977898;28;20054;-68
2020/12/23 03:58:55;;;;;;;7.07;3.38;;;;;;;15.02;85.00;100852.59;4978335;28;20140;-70
2020/12/23 04:01:22;;;;;;;5.93;3.35;;;;;;;14.89;85.36;100846.16;4991299;28;20509;-69
2020/12/23 04:03:50;;;;;;;5.38;3.33;;;;;;;15.09;85.08;100847.31;4992389;28;20054;-68
2020/12/23 04:06:18;;;;;;;5.50;3.65;;;;;;;14.98;85.12;100846.91;4975362;28;20054;-69
2020/12/23 04:08:45;;;;;;;6.63;3.50;;;;;;;14.79;85.61;100841.03;4989565;28;20414;-68
2020/12/23 04:11:11;;;;;;;7.05;3.40;;;;;;;14.80;85.93;100841.84;4996179;28;20057;-71
2020/12/23 04:13:38;;;;;;;6.57;3.50;;;;;;;14.74;86.15;100835.69;4976627;28;20076;-70
2020/12/23 04:16:05;;;;;;;5.82;3.28;;;;;;;14.80;85.71;100851.00;4979510;28;20049;-70
2020/12/23 04:18:32;;;;;;;5.55;3.10;;;;;;;14.72;85.91;100851.84;4980439;28;20074;-69
2020/12/23 04:20:59;;;;;;;6.15;3.45;;;;;;;14.58;86.59;100838.25;4983747;28;20047;-66
2020/12/23 04:23:26;;;;;;;6.72;3.40;;;;;;;14.66;86.63;100842.91;4994443;28;20058;-69
2020/12/23 04:25:53;;;;;;;6.25;3.47;;;;;;;14.66;86.51;100840.16;4958749;28;20055;-70
2020/12/23 04:28:20;;;;;;;5.55;3.03;;;;;;;14.54;86.34;100845.63;4979726;28;20410;-73
2020/12/23 04:30:47;;;;;;;6.25;3.38;;;;;;;14.73;85.96;100847.94;5009937;28;20058;-71
2020/12/23 04:33:15;;;;;;;6.80;3.50;;;;;;;14.82;86.03;100840.34;4976544;28;20355;-73
2020/12/23 04:35:58;;;;;;;6.78;3.42;;;;;;;14.76;85.85;100830.63;4962849;28;20059;-75
2020/12/23 04:38:25;;;;;;;5.65;3.20;;;;;;;14.73;85.67;100833.25;4976463;28;20051;-75
2020/12/23 04:40:51;;;;;;;6.93;3.33;;;;;;;14.72;85.66;100828.84;4992816;28;20081;-75
2020/12/23 04:43:19;;;;;;;6.63;3.40;;;;;;;14.59;86.39;100833.53;4976284;28;20062;-76
2020/12/23 04:45:46;;;;;;;5.82;3.33;;;;;;;14.68;86.54;100831.50;4988012;28;20061;-74
2020/12/23 04:48:15;;;;;;;8.40;3.28;;;;;;;14.64;86.37;100823.03;4995419;28;20050;-75
2020/12/23 04:50:44;;;;;;;5.75;3.28;;;;;;;14.70;86.43;100829.19;4993550;28;20061;-76
2020/12/23 04:53:11;;;;;;;6.05;3.28;;;;;;;14.60;86.27;100819.34;4978267;28;20061;-72
2020/12/23 04:55:41;;;;;;;6.75;3.30;;;;;;;14.63;86.20;100832.50;4994062;28;20054;-75
2020/12/23 04:58:08;;;;;;;6.15;3.45;;;;;;;14.73;86.12;100822.16;4975626;28;20375;-74
2020/12/23 05:00:35;;;;;;;9.48;3.20;;;;;;;14.77;85.69;100818.38;4987928;28;20422;-73
2020/12/23 05:03:02;;;;;;;6.57;3.17;;;;;;;14.65;85.86;100812.75;4989448;28;20047;-76
2020/12/23 05:05:30;;;;;;;5.72;3.25;;;;;;;14.60;86.49;100804.66;4994757;28;20055;-71
2020/12/23 05:07:58;;;;;;;7.38;3.47;;;;;;;14.52;87.12;100802.78;4974837;28;20514;-73
2020/12/23 05:10:30;;;;;;;5.60;3.47;;;;;;;14.58;86.95;100802.22;4991683;28;20050;-74
2020/12/23 05:12:57;;;;;;;5.60;3.55;;;;;;;14.62;86.81;100785.72;4986556;28;20047;-77
2020/12/23 05:15:24;;;;;;;8.18;3.42;;;;;;;14.62;86.39;100788.50;5006398;28;20057;-74
2020/12/23 05:17:51;;;;;;;6.35;3.90;;;;;;;14.64;86.47;100787.00;4989169;28;20059;-75
2020/12/23 05:20:19;;;;;;;7.55;3.17;;;;;;;14.61;86.41;100781.31;4991856;28;20533;-73
2020/12/23 05:22:49;;;;;;;5.28;3.00;;;;;;;14.68;86.05;100774.09;5005198;28;20062;-69
2020/12/23 05:25:17;;;;;;;5.93;3.47;;;;;;;14.52;86.64;100773.06;4975310;28;20423;-68
2020/12/23 05:27:48;;;;;;;5.10;3.45;;;;;;;14.56;86.70;100768.47;4986067;28;20050;-68
2020/12/23 05:30:18;;;;;;;6.72;3.30;;;;;;;14.67;86.51;100777.19;4994013;28;20050;-69
2020/12/23 05:32:46;;;;;;;5.88;3.25;;;;;;;14.52;86.19;100780.59;4990979;28;20055;-69
2020/12/23 05:35:14;;;;;;;7.85;3.30;;;;;;;14.62;86.27;100771.88;4988818;28;20415;-70
2020/12/23 05:37:42;;;;;;;7.95;3.40;;;;;;;14.51;86.92;100776.19;4994618;28;20405;-69
2020/12/23 05:40:09;;;;;;;5.75;3.50;;;;;;;14.52;87.02;100781.38;4978605;28;20061;-68
2020/12/23 05:42:38;;;;;;;5.25;3.55;;;;;;;14.50;87.09;100775.41;4975075;28;20043;-68
2020/12/23 05:45:06;;;;;;;6.45;3.25;;;;;;;14.60;86.25;100785.25;4979313;28;20387;-68
2020/12/23 05:47:34;;;;;;;5.82;3.13;;;;;;;14.52;86.51;100789.69;4974066;28;20051;-68
2020/12/23 05:50:01;;;;;;;7.78;3.10;;;;;;;14.57;86.95;100794.25;4978190;28;20047;-68
2020/12/23 05:52:32;;;;;;;5.97;2.85;;;;;;;14.40;87.01;100789.63;4982237;28;20046;-69
2020/12/23 05:54:59;;;;;;;5.25;2.75;;;;;;;14.44;86.82;100790.59;4942370;28;20074;-69
2020/12/23 05:57:25;;;;;;;6.85;3.40;;;;;;;14.48;87.13;100793.50;4958493;28;20402;-69
2020/12/23 05:59:52;;;;;;;6.00;3.35;;;;;;;14.41;87.04;100788.50;4983247;28;20059;-70
2020/12/23 06:02:22;;;;;;;4.90;3.22;;;;;;;14.38;87.35;100785.59;4990934;28;20057;-71
2020/12/23 06:04:50;;;;;;;5.55;3.58;;;;;;;14.44;87.09;100782.28;4965455;28;20061;-69
2020/12/23 06:07:18;;;;;;;8.20;3.58;;;;;;;14.41;87.21;100779.38;4974444;28;20047;-74
2020/12/23 06:09:48;;;;;;;6.32;3.60;;;;;;;14.36;87.33;100779.56;5002228;28;20065;-73
2020/12/23 06:12:16;;;;;;;;;;;;;;;14.40;87.33;100775.00;4994456;28;20394;-75
2020/12/23 06:14:56;;;;;;;5.80;3.50;;;;;;;14.48;86.81;100768.56;4990372;28;20285;-74
2020/12/23 06:17:25;;;;;;;6.35;3.20;;;;;;;14.46;87.24;100762.53;5008561;28;20054;-72
2020/12/23 06:19:57;;;;;;;9.68;3.92;;;;;;;14.34;87.53;100763.28;5001550;28;20046;-71
2020/12/23 06:22:26;;;;;;;5.90;3.42;;;;;;;14.38;87.59;100764.22;4994366;28;20053;-70
2020/12/23 06:24:53;;;;;;;9.20;3.80;;;;;;;14.50;87.06;100756.00;4994288;28;20050;-75
2020/12/23 06:27:20;;;;;;;6.55;3.45;;;;;;;14.32;87.96;100762.81;4992382;28;20051;-69
2020/12/23 06:29:48;;;;;;;6.28;3.05;;;;;;;14.51;87.26;100749.28;5006763;28;20050;-69
2020/12/23 06:32:24;;;;;;;9.25;3.95;;;;;;;14.45;86.98;100756.16;4988904;28;20057;-71
2020/12/23 06:34:58;;;;;;;6.35;3.17;;;;;;;14.31;88.46;100757.59;4989612;28;20062;-69
2020/12/23 06:37:26;;;;;;;6.68;3.45;;;;;;;14.51;87.32;100754.00;4971264;28;20046;-73
2020/12/23 06:39:53;;;;;;;7.20;3.30;;;;;;;14.35;87.90;100750.22;4940997;28;20057;-68
2020/12/23 06:42:20;;;;;;;5.45;2.88;;;;;;;14.38;87.97;100749.56;4974268;28;20068;-74
2020/12/23 06:44:54;;;;;;;7.60;2.80;;;;;;;14.32;88.04;100745.34;4986242;28;20061;-69
2020/12/23 06:47:23;;;;;;;4.95;3.08;;;;;;;14.45;88.38;100744.28;4974951;28;20050;-74
2020/12/23 06:49:57;;;;;;;5.75;3.13;;;;;;;14.33;88.00;100747.00;4992727;28;20050;-73
2020/12/23 06:52:24;;;;;;;5.60;2.70;;;;;;;14.30;88.58;100748.47;4990663;28;20043;-72
2020/12/23 06:54:55;;;;;;;4.32;2.30;;;;;;;14.26;88.64;100741.97;4976419;28;20418;-70
2020/12/23 06:57:34;;;;;;;4.70;2.33;;;;;;;14.28;88.08;100739.69;4980474;28;20053;-68
2020/12/23 07:00:19;;;;;;;5.43;2.65;;;;;;;14.39;88.12;100729.81;4993445;28;20406;-71
2020/12/23 07:02:56;;;;;;;3.60;2.20;;;;;;;14.50;87.34;100742.13;4975477;28;20047;-69
2020/12/23 07:05:23;;;;;;;4.20;2.30;;;;;;;14.37;87.79;100742.38;4989984;28;20055;-68
2020/12/23 07:08:19;;;;;;;4.05;2.45;;;;;;;14.50;87.12;100739.38;4973544;28;20051;-74
2020/12/23 07:10:48;;;;;;;6.07;2.47;;;;;;;14.43;87.17;100741.03;4954545;29;20059;-67
2020/12/23 07:13:17;;;;;;;5.18;2.55;;;;;;;14.40;87.19;100738.97;4937901;29;20399;-68
2020/12/23 07:15:50;;;;;;;6.05;2.58;;;;;;;14.31;87.69;100744.53;4934920;29;20051;-68
2020/12/23 07:18:18;;;;;;;6.70;3.10;;;;;;;14.34;87.56;100737.53;4954306;28;20058;-67
2020/12/23 07:20:46;;;;;;;5.53;2.92;;;;;;;14.38;87.02;100721.84;4937222;29;20070;-69
2020/12/23 07:23:15;;;;;;;7.05;2.88;;;;;;;14.37;87.35;100734.06;4955430;28;21657;-79
2020/12/23 07:25:47;;;;;;;5.47;3.13;;;;;;;14.26;87.31;100728.13;4955859;28;20062;-68
2020/12/23 07:28:18;;;;;;;6.10;3.17;;;;;;;14.18;87.52;100726.22;4951274;28;20059;-67
2020/12/23 07:30:46;;;;;;;10.68;4.03;;;;;;;14.17;88.06;100729.31;4942305;29;20113;-69
2020/12/23 07:33:20;;;;;;;8.52;3.97;;;;;;;14.30;87.88;100725.50;4956093;28;20043;-69
2020/12/23 07:35:49;;;;;;;8.35;4.18;;;;;;;14.23;87.62;100731.53;4958774;28;20043;-75
2020/12/23 07:38:17;;;;;;;10.60;5.05;;;;;;;14.30;87.36;100720.75;4967934;28;20067;-69
2020/12/23 07:40:45;;;;;;;7.57;3.53;;;;;;;14.25;87.31;100723.72;4955219;29;20495;-69
2020/12/23 07:43:13;;;;;;;5.60;3.25;;;;;;;14.18;87.87;100722.63;4952313;29;20499;-69
2020/12/23 07:45:40;;;;;;;6.20;3.22;;;;;;;14.31;87.02;100727.13;4957405;28;20070;-72
2020/12/23 07:48:10;;;;;;;7.85;3.72;;;;;;;14.28;87.33;100719.47;4969542;28;20054;-68
2020/12/23 07:50:41;;;;;;;5.00;2.70;;;;;;;14.47;86.86;100706.75;4976276;28;20065;-70
2020/12/23 07:53:22;;;;;;;6.47;3.03;;;;;;;14.53;86.09;100710.13;4979169;28;20065;-70
2020/12/23 07:56:09;;;;;;;7.10;3.70;;;;;;;14.54;85.66;100707.03;4975537;28;20062;-68
2020/12/23 07:58:39;;;;;;;9.02;3.60;;;;;;;14.44;86.06;100710.22;4975994;28;20050;-68
2020/12/23 08:01:09;;;;;;;9.05;4.38;;;;;;;14.43;86.32;100707.78;4976135;28;20047;-71
2020/12/23 08:03:36;;;;;;;12.35;5.60;;;;;;;14.41;86.33;100705.38;4990585;28;20054;-70
2020/12/23 08:06:08;;;;;;;15.60;6.90;;;;;;;14.44;86.39;100704.69;4961541;28;20054;-75
2020/12/23 08:08:35;;;;;;;12.30;5.70;;;;;;;14.50;85.68;100702.50;4994564;28;20042;-73
2020/12/23 08:11:13;;;;;;;8.20;3.70;;;;;;;14.43;86.14;100702.25;4975968;28;20051;-76
2020/12/23 08:13:41;;;;;;;7.68;3.45;;;;;;;14.42;85.76;100697.84;4978561;28;20051;-76
2020/12/23 08:16:10;;;;;;;7.43;3.42;;;;;;;14.51;85.99;100698.56;4972654;28;20050;-76
2020/12/23 08:18:38;;;;;;;7.78;3.53;;;;;;;14.59;85.92;100706.81;4977027;28;20058;-80
2020/12/23 08:21:12;;;;;;;7.28;3.47;;;;;;;14.88;86.18;100707.84;4974952;28;20051;-77
2020/12/23 08:23:40;;;;;;;9.75;4.00;;;;;;;14.75;85.08;100697.88;4975183;28;20356;-75
2020/12/23 08:26:08;;;;;;;9.18;3.60;;;;;;;14.61;85.54;100687.06;4975206;28;20062;-81
2020/12/23 08:28:40;;;;;;;10.02;3.95;;;;;;;14.58;85.91;100688.56;4974269;28;20406;-80
2020/12/23 08:31:18;;;;;;;7.75;4.00;;;;;;;14.46;85.96;100690.47;4973825;28;20051;-74
2020/12/23 08:33:45;;;;;;;9.93;4.25;;;;;;;14.42;86.89;100682.03;4966991;28;20553;-72
2020/12/23 08:36:14;;;;;;;7.88;4.10;;;;;;;14.56;86.57;100679.78;4990473;28;20042;-75
2020/12/23 08:38:41;;;;;;;8.63;4.57;;;;;;;14.53;86.35;100679.66;5000060;28;20038;-78
2020/12/23 08:41:15;;;;;;;10.27;4.47;;;;;;;14.35;86.61;100680.94;4959040;28;20383;-77
2020/12/23 08:43:49;;;;;;;7.80;4.60;;;;;;;14.60;86.10;100699.31;4972987;28;20054;-77
2020/12/23 08:46:27;;;;;;;6.07;3.90;;;;;;;14.55;85.87;100699.53;4986844;28;20066;-80
2020/12/23 08:48:55;;;;;;;7.93;3.95;;;;;;;14.73;85.63;100695.44;4974398;28;20513;-78
2020/12/23 08:51:25;;;;;;;8.05;4.20;;;;;;;14.53;85.37;100712.91;4976781;28;20061;-75
2020/12/23 08:53:52;;;;;;;7.85;3.90;;;;;;;14.53;85.03;100729.53;4978286;28;20047;-77
2020/12/23 08:56:31;;;;;;;11.43;4.63;;;;;;;14.61;85.47;100729.47;4974887;28;20058;-72
2020/12/23 08:59:03;;;;;;;10.23;5.13;;;;;;;14.53;85.49;100718.44;4971755;28;20050;-67
2020/12/23 09:01:32;;;;;;;9.55;4.55;;;;;;;14.42;86.69;100712.50;4973393;28;20073;-69
2020/12/23 09:04:07;;;;;;;10.85;4.55;;;;;;;14.49;85.82;100700.88;4960482;28;20054;-71
2020/12/23 09:06:37;;;;;;;8.95;4.50;;;;;;;14.57;85.89;100691.69;4970709;28;20059;-67
2020/12/23 09:09:20;;;;;;;10.65;4.20;;;;;;;14.62;85.64;100695.06;4969918;28;20138;-69
2020/12/23 09:11:49;;;;;;;10.75;4.40;;;;;;;14.62;84.78;100694.25;4969428;28;20050;-73
2020/12/23 09:14:27;;;;;;;9.18;3.55;;;;;;;14.54;85.17;100698.72;4968430;28;20065;-67
2020/12/23 09:17:05;;;;;;;8.63;3.50;;;;;;;14.69;84.42;100697.28;4972936;28;20051;-69
2020/12/23 09:19:54;;;;;;;7.45;3.90;;;;;;;15.02;83.12;100694.47;4971512;28;20047;-70
2020/12/23 09:22:27;;;;;;;15.93;8.98;;;;;;;14.68;83.54;100682.59;4971413;28;20494;-73
2020/12/23 09:25:30;;;;;;;9.60;4.90;;;;;;;14.68;83.28;100695.63;4972536;28;20055;-70
2020/12/23 09:28:09;;;;;;;6.95;3.50;;;;;;;14.57;84.30;100688.91;4953218;29;20438;-73
2020/12/23 09:30:46;;;;;;;7.93;4.00;;;;;;;14.71;84.43;100689.44;4950137;29;20047;-69
2020/12/23 09:33:19;;;;;;;7.20;3.30;;;;;;;14.49;84.25;100698.09;4950126;28;20062;-70
2020/12/23 09:35:49;;;;;;;6.70;3.35;;;;;;;14.60;84.39;100699.31;4952541;28;20058;-69
2020/12/23 09:38:24;;;;;;;6.10;3.53;;;;;;;14.58;83.96;100688.56;4961308;28;20043;-72
2020/12/23 09:40:54;;;;;;;12.15;4.40;;;;;;;14.65;83.83;100683.28;4951854;29;20054;-71
2020/12/23 09:43:24;;;;;;;8.80;4.13;;;;;;;14.50;83.41;100695.00;4948698;28;20058;-71
2020/12/23 09:45:52;;;;;;;8.90;3.40;;;;;;;14.47;83.36;100697.66;4940727;28;20047;-70
2020/12/23 09:48:21;;;;;;;9.32;3.67;;;;;;;14.73;83.42;100700.16;4943007;28;20047;-73
2020/12/23 09:50:49;;;;;;;7.27;3.87;;;;;;;14.66;83.21;100706.28;4933979;29;20538;-73
2020/12/23 09:53:15;;;;;;;6.88;3.67;;;;;;;14.91;82.61;100691.31;4947370;29;20062;-70
2020/12/23 09:55:43;;;;;;;8.80;3.60;;;;;;;14.71;82.68;100699.69;4941637;28;20070;-69
2020/12/23 09:58:11;;;;;;;8.40;3.63;;;;;;;14.70;83.25;100690.56;4940309;29;20054;-69
2020/12/23 10:00:38;;;;;;;11.23;7.00;;;;;;;14.75;82.82;100695.88;4942578;28;20055;-68
2020/12/23 10:03:05;;;;;;;7.63;4.30;;;;;;;14.58;83.02;100682.19;4957652;28;20396;-70
2020/12/23 10:05:33;;;;;;;6.78;3.13;;;;;;;14.55;83.49;100675.41;4978982;28;20051;-77
2020/12/23 10:08:00;;;;;;;9.52;3.25;;;;;;;14.76;82.98;100655.13;4966673;28;20047;-68
2020/12/23 10:10:28;;;;;;;6.15;2.90;;;;;;;14.68;82.98;100656.81;4985364;28;20529;-70
2020/12/23 10:12:55;;;;;;;7.28;3.20;;;;;;;14.68;83.67;100643.78;4963470;28;20475;-74
2020/12/23 10:15:21;;;;;;;18.10;10.23;;;;;;;14.73;83.35;100628.09;4966314;28;20494;-72
2020/12/23 10:17:48;;;;;;;16.75;8.55;;;;;;;14.59;83.57;100606.22;4966067;28;20408;-71
2020/12/23 10:20:15;;;;;;;9.25;3.65;;;;;;;14.68;83.18;100597.81;4963398;28;20055;-71
2020/12/23 10:22:45;;;;;;;5.40;3.00;;;;;;;14.64;83.52;100604.03;4961529;28;20047;-74
2020/12/23 10:25:14;;;;;;;6.18;3.03;;;;;;;14.87;82.56;100609.94;4984245;28;20526;-68
2020/12/23 10:27:41;;;;;;;6.43;2.80;;;;;;;14.81;82.48;100604.97;4953163;28;20055;-67
2020/12/23 10:30:11;;;;;;;7.95;2.95;;;;;;;14.87;82.50;100603.63;4970222;28;20529;-69
2020/12/23 10:32:38;;;;;;;5.07;3.10;;;;;;;14.93;82.89;100605.00;4966777;28;20053;-68
2020/12/23 10:35:07;;;;;;;6.80;2.90;;;;;;;14.95;82.85;100603.50;4985710;28;20058;-68
2020/12/23 10:37:35;;;;;;;8.85;3.03;;;;;;;15.01;81.88;100595.78;4951346;28;20051;-72
2020/12/23 10:40:04;;;;;;;5.78;2.85;;;;;;;14.84;82.39;100591.25;4950022;28;20059;-68
2020/12/23 10:42:32;;;;;;;7.00;2.92;;;;;;;14.88;82.34;100575.53;4971826;28;20047;-67
2020/12/23 10:44:59;;;;;;;6.28;3.05;;;;;;;14.82;82.18;100585.22;4970398;28;20061;-68
2020/12/23 10:47:31;;;;;;;5.05;2.55;;;;;;;14.68;82.70;100576.41;4971630;28;20054;-69
2020/12/23 10:49:59;;;;;;;6.97;3.20;;;;;;;14.75;81.81;100571.13;4985267;28;20055;-70
2020/12/23 10:52:27;;;;;;;7.85;3.22;;;;;;;14.81;82.92;100561.44;4971821;28;20047;-68
2020/12/23 10:54:55;;;;;;;6.28;3.05;;;;;;;14.78;82.33;100553.81;4983902;28;20042;-70
2020/12/23 10:57:22;;;;;;;7.10;3.20;;;;;;;14.95;82.54;100541.66;4971410;28;20414;-68
2020/12/23 10:59:49;;;;;;;5.63;3.00;;;;;;;14.91;81.58;100549.88;4983879;28;20058;-68
2020/12/23 11:02:16;;;;;;;10.00;3.30;;;;;;;14.79;81.98;100549.88;4972196;28;20051;-71
2020/12/23 11:04:45;;;;;;;5.47;2.97;;;;;;;15.09;81.41;100534.63;4971272;28;20392;-71
2020/12/23 11:07:12;;;;;;;6.13;2.70;;;;;;;14.94;81.49;100540.06;4971316;28;20058;-70
2020/12/23 11:09:39;;;;;;;6.55;3.15;;;;;;;14.95;81.51;100533.34;4972356;28;20039;-72
2020/12/23 11:12:06;;;;;;;6.72;3.35;;;;;;;15.06;81.27;100535.34;4970768;28;20050;-68
2020/12/23 11:14:34;;;;;;;9.40;3.60;;;;;;;15.20;80.64;100538.53;4953739;28;20047;-70
2020/12/23 11:17:00;;;;;;;6.53;3.10;;;;;;;14.90;81.77;100544.69;4971773;28;20051;-69
2020/12/23 11:19:30;;;;;;;9.95;3.58;;;;;;;15.23;80.89;100543.41;4970573;28;20077;-69
2020/12/23 11:21:57;;;;;;;8.65;3.40;;;;;;;15.23;80.00;100562.84;4969300;28;20065;-66
2020/12/23 11:24:24;;;;;;;7.25;3.47;;;;;;;15.28;80.09;100550.66;4970364;28;20043;-70
2020/12/23 11:26:50;;;;;;;7.45;3.42;;;;;;;15.24;79.62;100545.00;4970922;28;20054;-67
2020/12/23 11:29:20;;;;;;;7.30;2.80;;;;;;;15.23;79.51;100543.41;4972266;28;20057;-68
2020/12/23 11:31:53;;;;;;;8.43;3.33;;;;;;;15.26;79.87;100539.94;4970374;28;20062;-70